Time;durP1;ratioP1;P1;durP2;ratioP2;P2;SDS_P1;SDS_P2;PMS_P1;PMS_P2;Temp;Humidity;BMP_temperature;BMP_pressure;BME280_temperature;BME280_humidity;BME280_pressure;Samples;Min_cycle;Max_cycle;Signal;HPM_P1;HPM_P2
2022/10/11 00:00:40;;;;;;;11.37;8.47;;;;;;;13.90;100.00;98589.16;5035380;28;20225;-69
2022/10/11 00:03:07;;;;;;;13.87;7.23;;;;;;;13.84;100.00;98590.03;5035011;28;20206;-69
2022/10/11 00:05:34;;;;;;;12.47;6.70;;;;;;;13.73;100.00;98590.81;5035320;28;20330;-69
2022/10/11 00:08:01;;;;;;;9.83;5.93;;;;;;;13.69;100.00;98594.16;5035182;28;20208;-69
2022/10/11 00:10:27;;;;;;;13.57;6.37;;;;;;;13.66;100.00;98603.44;5034821;28;20222;-69
2022/10/11 00:12:54;;;;;;;9.73;5.63;;;;;;;13.63;100.00;98595.91;5035011;28;20226;-69
2022/10/11 00:15:22;;;;;;;10.57;5.37;;;;;;;13.62;100.00;98593.44;5035064;28;20202;-70
2022/10/11 00:17:48;;;;;;;9.57;5.10;;;;;;;13.56;100.00;98591.69;5034995;28;20268;-70
2022/10/11 00:20:15;;;;;;;11.23;4.87;;;;;;;13.42;100.00;98593.69;5034924;28;20232;-70
2022/10/11 00:22:42;;;;;;;9.63;5.27;;;;;;;13.42;100.00;98601.69;5034960;28;20201;-70
2022/10/11 00:25:10;;;;;;;8.77;5.10;;;;;;;13.44;100.00;98598.81;5035687;28;20202;-70
2022/10/11 00:27:37;;;;;;;11.13;5.63;;;;;;;13.42;100.00;98593.69;5035366;28;20668;-69
2022/10/11 00:30:07;;;;;;;9.20;5.43;;;;;;;13.43;100.00;98600.66;5034320;28;20237;-69
2022/10/11 00:32:36;;;;;;;9.80;5.00;;;;;;;13.46;100.00;98602.88;5034382;28;20550;-69
2022/10/11 00:35:05;;;;;;;13.37;5.93;;;;;;;13.56;100.00;98597.03;5035524;28;20213;-70
2022/10/11 00:37:36;;;;;;;11.23;5.63;;;;;;;13.62;100.00;98604.94;5035180;28;20210;-69
2022/10/11 00:40:09;;;;;;;13.23;6.03;;;;;;;13.67;100.00;98606.94;5034533;28;20222;-70
2022/10/11 00:42:36;;;;;;;9.43;5.30;;;;;;;13.60;100.00;98604.34;5034292;28;20186;-69
2022/10/11 00:45:56;;;;;;;13.50;5.73;;;;;;;13.50;100.00;98606.75;5034757;28;20202;-69
2022/10/11 00:48:40;;;;;;;9.37;5.37;;;;;;;13.44;100.00;98601.47;4954149;29;20207;-70
2022/10/11 00:51:35;;;;;;;12.23;5.20;;;;;;;13.36;100.00;98605.25;4954030;29;20233;-70
2022/10/11 00:54:03;;;;;;;7.93;5.00;;;;;;;13.33;100.00;98611.03;5018953;28;20216;-69
2022/10/11 00:56:33;;;;;;;10.30;5.87;;;;;;;13.46;100.00;98604.72;5034303;28;20205;-69
2022/10/11 00:59:04;;;;;;;10.07;5.73;;;;;;;13.60;100.00;98607.03;5034006;28;20636;-70
2022/10/11 01:01:30;;;;;;;9.93;6.60;;;;;;;13.64;100.00;98607.38;5017134;28;20229;-70
2022/10/11 01:03:57;;;;;;;11.50;6.43;;;;;;;13.62;100.00;98615.63;5033851;28;20582;-70
2022/10/11 01:06:23;;;;;;;10.97;6.17;;;;;;;13.64;100.00;98610.88;5034131;28;20216;-69
2022/10/11 01:08:52;;;;;;;12.77;6.10;;;;;;;13.63;100.00;98617.28;5034112;28;20206;-69
2022/10/11 01:11:23;;;;;;;11.93;5.93;;;;;;;13.57;100.00;98618.16;5032784;28;20709;-70
2022/10/11 01:14:19;;;;;;;8.63;5.77;;;;;;;13.56;100.00;98616.53;5033993;28;20214;-69
2022/10/11 01:17:05;;;;;;;11.80;5.83;;;;;;;13.52;100.00;98615.34;5016467;28;20194;-69
2022/10/11 01:19:34;;;;;;;7.93;5.43;;;;;;;13.48;100.00;98608.81;5033857;28;20190;-70
2022/10/11 01:22:34;;;;;;;11.20;6.37;;;;;;;13.50;100.00;98609.41;5033899;28;20209;-70
2022/10/11 01:25:13;;;;;;;13.77;6.10;;;;;;;13.43;100.00;98611.34;5032720;28;20190;-70
2022/10/11 01:27:57;;;;;;;12.80;5.97;;;;;;;13.43;100.00;98608.66;5034050;28;20206;-69
2022/10/11 01:30:30;;;;;;;10.13;6.27;;;;;;;13.43;100.00;98610.53;5033498;28;20671;-70
2022/10/11 01:33:02;;;;;;;11.73;5.93;;;;;;;13.43;100.00;98615.88;5033664;28;20229;-69
2022/10/11 01:35:31;;;;;;;13.90;7.27;;;;;;;13.40;100.00;98625.16;5033699;28;20197;-69
2022/10/11 01:38:12;;;;;;;10.40;6.77;;;;;;;13.36;100.00;98620.47;5033625;28;20202;-69
2022/10/11 01:40:46;;;;;;;11.90;6.73;;;;;;;13.37;100.00;98617.56;5033578;28;20234;-70
2022/10/11 01:43:14;;;;;;;11.53;7.10;;;;;;;13.43;100.00;98624.69;5033822;28;20518;-69
2022/10/11 01:45:43;;;;;;;13.07;7.17;;;;;;;13.33;100.00;98621.72;5016121;28;20202;-69
2022/10/11 01:48:13;;;;;;;9.30;7.63;;;;;;;13.31;100.00;98614.97;5015975;28;20209;-69
2022/10/11 01:50:51;;;;;;;12.00;7.03;;;;;;;13.31;100.00;98618.47;5033476;28;20228;-69
2022/10/11 01:53:40;;;;;;;11.83;8.13;;;;;;;13.28;100.00;98615.41;5033427;28;20224;-69
2022/10/11 01:56:27;;;;;;;11.37;6.87;;;;;;;13.20;100.00;98616.53;5033503;28;20195;-70
2022/10/11 01:59:12;;;;;;;10.80;7.17;;;;;;;13.27;100.00;98627.13;5033999;28;20195;-70
2022/10/11 02:01:50;;;;;;;12.70;7.17;;;;;;;13.21;100.00;98614.69;5033817;28;20229;-70
2022/10/11 02:04:50;;;;;;;11.90;8.27;;;;;;;13.31;100.00;98615.81;5033679;28;20319;-70
2022/10/11 02:07:25;;;;;;;14.47;8.03;;;;;;;13.29;100.00;98627.75;4992908;28;20210;-70
2022/10/11 02:09:59;;;;;;;12.97;8.33;;;;;;;13.25;100.00;98624.69;5033024;28;20711;-70
2022/10/11 02:12:32;;;;;;;14.37;9.00;;;;;;;13.29;100.00;98625.88;5015737;28;20213;-70
2022/10/11 02:15:02;;;;;;;15.70;9.47;;;;;;;13.27;100.00;98619.13;5033283;28;20195;-70
2022/10/11 02:17:35;;;;;;;20.07;11.30;;;;;;;13.38;100.00;98624.53;5016261;28;20213;-70
2022/10/11 02:20:06;;;;;;;16.03;10.50;;;;;;;13.38;100.00;98613.84;5020097;28;20230;-70
2022/10/11 02:22:37;;;;;;;20.60;10.67;;;;;;;13.42;100.00;98615.03;5037191;28;20196;-69
2022/10/11 02:25:10;;;;;;;16.53;10.27;;;;;;;13.44;100.00;98623.66;5019631;28;20227;-70
2022/10/11 02:27:41;;;;;;;17.77;10.43;;;;;;;13.51;100.00;98627.06;5037593;28;20190;-70
2022/10/11 02:30:09;;;;;;;16.93;11.13;;;;;;;13.47;100.00;98627.75;5036760;28;20233;-70
2022/10/11 02:32:39;;;;;;;14.40;10.77;;;;;;;13.47;100.00;98622.41;5037437;28;20217;-70
2022/10/11 02:35:07;;;;;;;16.37;10.73;;;;;;;13.47;100.00;98628.53;5019063;28;20208;-70
2022/10/11 02:37:42;;;;;;;17.70;11.00;;;;;;;13.49;100.00;98620.31;5019129;28;20220;-69
2022/10/11 02:40:30;;;;;;;16.37;11.00;;;;;;;13.47;100.00;98633.88;5036613;28;20225;-69
2022/10/11 02:43:03;;;;;;;17.53;11.37;;;;;;;13.50;100.00;98630.78;5037317;28;20189;-69
2022/10/11 02:45:37;;;;;;;17.17;11.70;;;;;;;13.46;100.00;98634.09;5003203;28;20664;-69
2022/10/11 02:48:06;;;;;;;13.67;11.57;;;;;;;13.44;100.00;98629.00;5036674;28;20387;-69
2022/10/11 02:50:33;;;;;;;14.20;11.73;;;;;;;13.46;100.00;98626.91;5036205;28;20226;-69
2022/10/11 02:52:59;;;;;;;20.03;12.00;;;;;;;13.42;100.00;98631.06;5035876;28;20241;-70
2022/10/11 02:55:25;;;;;;;16.67;11.93;;;;;;;13.45;100.00;98633.31;5036567;28;20209;-69
2022/10/11 02:57:52;;;;;;;23.20;12.93;;;;;;;13.43;100.00;98632.69;5036251;28;20210;-70
2022/10/11 03:00:19;;;;;;;21.37;12.80;;;;;;;13.42;100.00;98636.41;5036281;28;20727;-70
2022/10/11 03:02:45;;;;;;;18.57;12.20;;;;;;;13.45;100.00;98633.31;5036207;28;20213;-70
2022/10/11 03:05:11;;;;;;;19.57;12.87;;;;;;;13.48;100.00;98643.53;5036298;28;20210;-70
2022/10/11 03:07:38;;;;;;;18.23;13.17;;;;;;;13.46;100.00;98637.59;5036013;28;20544;-70
2022/10/11 03:10:05;;;;;;;25.67;13.50;;;;;;;13.47;100.00;98641.91;5036106;28;20233;-70
2022/10/11 03:12:31;;;;;;;25.03;14.20;;;;;;;13.48;100.00;98651.53;5036032;28;20225;-70
2022/10/11 03:14:58;;;;;;;20.97;13.13;;;;;;;13.45;100.00;98646.66;5036033;28;20211;-70
2022/10/11 03:17:26;;;;;;;21.70;13.90;;;;;;;13.50;100.00;98652.16;5036113;28;20217;-70
2022/10/11 03:19:52;;;;;;;19.73;14.13;;;;;;;13.48;100.00;98648.06;5035740;28;20709;-70
2022/10/11 03:22:18;;;;;;;22.10;13.73;;;;;;;13.51;100.00;98645.75;5036045;28;20213;-70
2022/10/11 03:24:45;;;;;;;22.93;14.37;;;;;;;13.51;100.00;98651.09;5035914;28;20220;-70
2022/10/11 03:27:11;;;;;;;25.20;14.20;;;;;;;13.52;100.00;98650.06;5035876;28;20304;-69
2022/10/11 03:29:38;;;;;;;26.63;17.23;;;;;;;13.51;100.00;98648.44;5034500;28;20214;-70
2022/10/11 03:32:05;;;;;;;21.83;16.53;;;;;;;13.52;100.00;98654.59;5035844;28;20190;-69
2022/10/11 03:34:31;;;;;;;29.30;17.27;;;;;;;13.52;100.00;98650.06;5035604;28;20229;-70
2022/10/11 03:36:57;;;;;;;28.50;16.73;;;;;;;13.58;100.00;98657.19;5035750;28;20217;-70
2022/10/11 03:39:24;;;;;;;27.73;17.37;;;;;;;13.57;100.00;98660.88;5035651;28;20212;-70
2022/10/11 03:41:50;;;;;;;28.43;17.67;;;;;;;13.61;100.00;98655.94;5035689;28;20233;-70
2022/10/11 03:44:17;;;;;;;28.07;18.23;;;;;;;13.69;100.00;98647.59;5035450;28;20696;-70
2022/10/11 03:46:43;;;;;;;31.27;18.13;;;;;;;13.54;100.00;98656.00;5035525;28;20209;-70
2022/10/11 03:49:09;;;;;;;33.37;18.13;;;;;;;13.62;100.00;98653.00;5035398;28;20688;-70
2022/10/11 03:51:36;;;;;;;28.23;17.50;;;;;;;13.58;100.00;98656.38;5035388;28;20243;-70
2022/10/11 03:54:02;;;;;;;28.90;17.27;;;;;;;13.61;100.00;98662.06;5035605;28;20685;-70
2022/10/11 03:56:28;;;;;;;29.30;18.37;;;;;;;13.58;100.00;98664.38;5035421;28;20202;-70
2022/10/11 03:58:55;;;;;;;28.87;18.63;;;;;;;13.56;100.00;98661.94;5035182;28;20579;-70
2022/10/11 04:01:21;;;;;;;31.73;19.33;;;;;;;13.53;100.00;98665.06;5035091;28;20314;-70
2022/10/11 04:03:47;;;;;;;30.97;18.97;;;;;;;13.52;100.00;98666.09;5035128;28;20202;-70
2022/10/11 04:06:14;;;;;;;27.80;19.47;;;;;;;13.49;100.00;98663.88;5035081;28;20221;-70
2022/10/11 04:08:40;;;;;;;30.77;20.30;;;;;;;13.51;100.00;98669.81;5035214;28;20206;-70
2022/10/11 04:11:06;;;;;;;30.23;19.63;;;;;;;13.55;100.00;98673.66;5034977;28;20230;-70
2022/10/11 04:13:33;;;;;;;36.90;21.13;;;;;;;13.51;100.00;98675.16;5034951;28;20222;-70
2022/10/11 04:15:59;;;;;;;29.07;20.40;;;;;;;13.51;100.00;98677.00;5035198;28;20202;-70
2022/10/11 04:18:25;;;;;;;28.70;19.57;;;;;;;13.50;100.00;98668.19;5034760;28;20623;-70
2022/10/11 04:20:52;;;;;;;29.10;21.60;;;;;;;13.53;100.00;98680.28;5034576;28;20588;-70
2022/10/11 04:23:18;;;;;;;26.90;20.13;;;;;;;13.52;100.00;98684.78;5034492;28;20202;-70
2022/10/11 04:25:47;;;;;;;30.07;20.73;;;;;;;13.50;100.00;98686.88;5034611;28;20225;-70
2022/10/11 04:28:13;;;;;;;30.33;21.73;;;;;;;13.52;100.00;98684.78;5034534;28;20571;-70
2022/10/11 04:30:40;;;;;;;33.23;20.50;;;;;;;13.52;100.00;98681.31;5034129;28;20793;-70
2022/10/11 04:33:06;;;;;;;30.27;21.57;;;;;;;13.48;100.00;98683.59;5034496;28;20230;-71
2022/10/11 04:35:33;;;;;;;31.83;20.83;;;;;;;13.55;100.00;98691.53;5034503;28;20298;-70
2022/10/11 04:37:59;;;;;;;33.10;21.30;;;;;;;13.50;100.00;98681.53;5034182;28;20210;-70
2022/10/11 04:40:25;;;;;;;35.27;21.07;;;;;;;13.50;100.00;98675.38;5033895;28;20234;-70
2022/10/11 04:42:52;;;;;;;34.00;21.70;;;;;;;13.44;100.00;98679.75;5033914;28;20220;-70
2022/10/11 04:45:19;;;;;;;30.67;21.43;;;;;;;13.47;100.00;98686.50;5033380;28;20305;-71
2022/10/11 04:47:46;;;;;;;30.33;22.53;;;;;;;13.40;100.00;98699.09;5034183;28;20292;-70
2022/10/11 04:50:12;;;;;;;33.50;22.37;;;;;;;13.38;100.00;98699.31;5034155;28;20226;-70
2022/10/11 04:52:38;;;;;;;32.77;21.57;;;;;;;13.37;100.00;98692.34;5033683;28;20210;-70
2022/10/11 04:55:05;;;;;;;32.10;21.60;;;;;;;13.40;100.00;98693.75;5033743;28;20213;-70
2022/10/11 04:57:32;;;;;;;31.47;21.83;;;;;;;13.40;100.00;98699.09;5033842;28;20220;-71
2022/10/11 04:59:58;;;;;;;30.77;21.10;;;;;;;13.39;100.00;98692.94;5033648;28;20226;-70
2022/10/11 05:02:24;;;;;;;30.63;20.97;;;;;;;13.42;100.00;98695.19;5016380;28;20310;-71
2022/10/11 05:04:51;;;;;;;29.87;21.90;;;;;;;13.40;100.00;98707.13;5033840;28;20212;-70
2022/10/11 05:07:17;;;;;;;32.60;21.87;;;;;;;13.43;100.00;98706.69;5033986;28;20573;-71
2022/10/11 05:09:43;;;;;;;30.07;21.00;;;;;;;13.45;100.00;98710.78;5033826;28;20284;-71
2022/10/11 05:12:10;;;;;;;36.73;22.97;;;;;;;13.41;100.00;98708.75;5033792;28;20206;-71
2022/10/11 05:14:37;;;;;;;39.03;22.83;;;;;;;13.42;100.00;98719.22;5033376;28;20229;-71
2022/10/11 05:17:03;;;;;;;33.70;21.77;;;;;;;13.42;100.00;98705.84;5033310;28;20213;-71
2022/10/11 05:19:29;;;;;;;26.13;20.23;;;;;;;13.49;100.00;98706.63;5033402;28;20267;-71
2022/10/11 05:21:56;;;;;;;32.17;21.53;;;;;;;13.44;100.00;98719.81;5033476;28;20575;-71
2022/10/11 05:24:23;;;;;;;33.83;20.83;;;;;;;13.46;100.00;98720.41;5033168;28;20301;-71
2022/10/11 05:26:49;;;;;;;34.60;21.93;;;;;;;13.43;100.00;98720.84;5033364;28;20210;-71
2022/10/11 05:29:15;;;;;;;33.93;20.83;;;;;;;13.43;100.00;98720.03;5033238;28;20237;-71
2022/10/11 05:31:42;;;;;;;29.47;20.20;;;;;;;13.47;100.00;98723.91;5032830;28;20237;-71
2022/10/11 05:34:08;;;;;;;28.20;20.87;;;;;;;13.42;100.00;98727.22;5033119;28;20281;-71
2022/10/11 05:36:34;;;;;;;28.57;20.27;;;;;;;13.45;100.00;98729.47;5033159;28;20236;-71
2022/10/11 05:39:01;;;;;;;28.47;19.83;;;;;;;13.47;100.00;98727.38;5033003;28;20580;-71
2022/10/11 05:41:28;;;;;;;30.43;19.83;;;;;;;13.47;100.00;98738.06;5032707;28;20230;-71
2022/10/11 05:43:54;;;;;;;33.57;20.90;;;;;;;13.44;100.00;98738.53;5033128;28;20213;-71
2022/10/11 05:46:21;;;;;;;27.93;19.27;;;;;;;13.47;100.00;98739.94;5032529;28;20204;-71
2022/10/11 05:48:47;;;;;;;27.23;19.80;;;;;;;13.51;100.00;98749.13;5033066;28;20233;-71
2022/10/11 05:51:13;;;;;;;24.97;19.87;;;;;;;13.58;100.00;98745.38;5033152;28;20720;-71
2022/10/11 05:53:40;;;;;;;23.30;17.47;;;;;;;13.49;100.00;98746.69;5032451;28;20225;-71
2022/10/11 05:56:18;;;;;;;29.07;18.90;;;;;;;13.53;100.00;98750.56;5032904;28;20202;-72
2022/10/11 05:58:44;;;;;;;26.53;17.77;;;;;;;13.72;100.00;98754.88;5032849;28;20641;-71
2022/10/11 06:01:25;;;;;;;26.50;18.10;;;;;;;13.65;100.00;98754.13;5032754;28;20589;-72
2022/10/11 06:03:52;;;;;;;32.23;18.33;;;;;;;13.59;100.00;98763.03;5032911;28;20186;-71
2022/10/11 06:06:19;;;;;;;34.27;17.93;;;;;;;13.58;100.00;98757.91;5032910;28;20210;-71
2022/10/11 06:08:46;;;;;;;24.03;16.33;;;;;;;13.61;100.00;98774.28;5032885;28;20292;-71
2022/10/11 06:11:22;;;;;;;23.20;17.70;;;;;;;13.54;100.00;98775.41;5032569;28;20231;-72
2022/10/11 06:13:48;;;;;;;28.23;19.13;;;;;;;13.48;100.00;98769.06;5033113;28;20213;-72
2022/10/11 06:16:15;;;;;;;25.73;17.33;;;;;;;13.64;100.00;98779.22;5033121;28;20215;-71
2022/10/11 06:18:41;;;;;;;28.20;17.73;;;;;;;13.51;100.00;98770.50;5032949;28;20206;-72
2022/10/11 06:21:08;;;;;;;27.93;17.07;;;;;;;13.50;100.00;98780.38;5032747;28;20226;-72
2022/10/11 06:23:34;;;;;;;26.40;17.33;;;;;;;13.54;100.00;98784.25;5033041;28;20202;-72
2022/10/11 06:26:05;;;;;;;25.33;17.10;;;;;;;13.46;100.00;98781.00;5032911;28;20212;-71
2022/10/11 06:28:31;;;;;;;27.63;16.20;;;;;;;13.47;100.00;98775.47;5032973;28;20195;-72
2022/10/11 06:30:58;;;;;;;30.33;16.63;;;;;;;13.43;100.00;98787.63;5032173;28;20233;-69
2022/10/11 06:33:25;;;;;;;29.57;17.17;;;;;;;13.45;100.00;98787.41;5032492;28;20229;-69
2022/10/11 06:36:07;;;;;;;25.70;17.27;;;;;;;13.43;100.00;98792.97;5033163;28;20212;-74
2022/10/11 06:38:33;;;;;;;25.10;16.23;;;;;;;13.57;100.00;98796.34;5034468;28;20201;-74
2022/10/11 06:41:11;;;;;;;23.37;16.53;;;;;;;13.57;100.00;98796.34;5033514;28;20226;-73
2022/10/11 06:43:38;;;;;;;23.80;17.87;;;;;;;13.43;100.00;98800.19;5035729;28;20206;-74
2022/10/11 06:46:04;;;;;;;21.40;15.70;;;;;;;13.41;100.00;98800.38;5035702;28;20213;-75
2022/10/11 06:48:31;;;;;;;23.93;15.60;;;;;;;13.47;100.00;98809.38;5036072;28;20537;-73
2022/10/11 06:51:00;;;;;;;24.40;16.70;;;;;;;13.47;100.00;98809.38;5034425;28;20234;-72
2022/10/11 06:53:28;;;;;;;20.50;15.20;;;;;;;13.60;100.00;98804.72;5033394;28;20222;-73
2022/10/11 06:56:00;;;;;;;22.87;15.23;;;;;;;13.51;100.00;98813.22;5032194;28;20772;-70
2022/10/11 06:58:28;;;;;;;26.60;16.17;;;;;;;13.51;100.00;98814.06;5032445;28;20186;-70
2022/10/11 07:00:54;;;;;;;24.97;15.70;;;;;;;13.45;100.00;98814.13;5032098;28;20222;-71
2022/10/11 07:03:20;;;;;;;24.77;16.00;;;;;;;13.44;100.00;98815.97;5032686;28;20678;-70
2022/10/11 07:05:47;;;;;;;24.13;16.90;;;;;;;13.49;100.00;98818.00;5036106;28;20214;-71
2022/10/11 07:08:13;;;;;;;26.10;17.50;;;;;;;13.48;100.00;98821.69;5035818;28;20210;-70
2022/10/11 07:10:39;;;;;;;28.20;17.00;;;;;;;13.59;100.00;98834.34;5035513;28;20233;-70
2022/10/11 07:13:06;;;;;;;24.27;16.10;;;;;;;13.61;100.00;98833.06;5035754;28;20673;-70
2022/10/11 07:15:39;;;;;;;27.03;16.47;;;;;;;13.58;100.00;98841.56;5035173;28;20592;-70
2022/10/11 07:18:06;;;;;;;24.63;17.57;;;;;;;13.56;100.00;98832.91;5035998;28;20202;-71
2022/10/11 07:20:33;;;;;;;22.27;17.17;;;;;;;13.57;100.00;98841.75;5035553;28;20234;-70
2022/10/11 07:22:59;;;;;;;25.40;16.13;;;;;;;13.53;100.00;98840.56;5035891;28;20202;-71
2022/10/11 07:25:25;;;;;;;26.17;16.90;;;;;;;13.64;100.00;98840.66;5035813;28;20307;-70
2022/10/11 07:27:52;;;;;;;23.97;16.13;;;;;;;13.69;100.00;98848.00;5035702;28;20213;-70
2022/10/11 07:30:18;;;;;;;19.90;15.67;;;;;;;13.68;100.00;98855.22;5035322;28;20238;-70
2022/10/11 07:32:44;;;;;;;21.70;15.47;;;;;;;13.61;100.00;98843.75;5035291;28;20221;-70
2022/10/11 07:35:11;;;;;;;24.27;15.80;;;;;;;13.56;100.00;98853.50;5035286;28;20607;-71
2022/10/11 07:37:37;;;;;;;24.60;16.47;;;;;;;13.57;100.00;98853.25;5035260;28;20668;-70
2022/10/11 07:40:05;;;;;;;30.83;16.37;;;;;;;13.55;100.00;98849.16;5035169;28;20230;-70
2022/10/11 07:42:33;;;;;;;21.70;16.03;;;;;;;13.66;100.00;98854.59;5035197;28;20594;-70
2022/10/11 07:44:59;;;;;;;20.30;15.70;;;;;;;13.78;100.00;98849.38;5034957;28;20206;-71
2022/10/11 07:47:26;;;;;;;20.17;14.73;;;;;;;13.87;100.00;98848.88;5034947;28;20214;-70
2022/10/11 07:49:52;;;;;;;25.93;15.43;;;;;;;13.86;100.00;98852.59;5034830;28;20234;-71
2022/10/11 07:52:18;;;;;;;27.97;16.53;;;;;;;13.77;100.00;98845.88;5035338;28;20210;-70
2022/10/11 07:54:45;;;;;;;22.30;15.50;;;;;;;13.78;100.00;98855.53;5035098;28;20225;-70
2022/10/11 07:57:11;;;;;;;19.73;15.33;;;;;;;13.75;100.00;98860.50;5035030;28;20581;-70
2022/10/11 07:59:37;;;;;;;21.37;15.83;;;;;;;13.96;100.00;98862.75;5035083;28;20212;-70
2022/10/11 08:02:04;;;;;;;19.80;14.63;;;;;;;13.92;100.00;98857.03;5035184;28;20213;-70
2022/10/11 08:04:30;;;;;;;28.00;15.83;;;;;;;13.81;100.00;98862.31;5034838;28;20205;-70
2022/10/11 08:06:56;;;;;;;24.53;15.47;;;;;;;13.93;100.00;98863.22;5035014;28;20209;-69
2022/10/11 08:09:23;;;;;;;20.07;14.50;;;;;;;14.00;100.00;98864.78;5034601;28;20209;-70
2022/10/11 08:11:49;;;;;;;23.13;15.43;;;;;;;14.07;100.00;98862.84;5035042;28;20600;-70
2022/10/11 08:14:16;;;;;;;19.47;15.03;;;;;;;14.07;100.00;98860.19;5034918;28;20222;-70
2022/10/11 08:16:42;;;;;;;26.47;15.53;;;;;;;14.13;100.00;98856.63;5034038;28;20669;-70
2022/10/11 08:19:10;;;;;;;20.77;15.07;;;;;;;14.18;100.00;98863.97;5034963;28;20582;-70
2022/10/11 08:21:36;;;;;;;21.53;15.90;;;;;;;13.81;100.00;98865.81;5034450;28;20670;-70
2022/10/11 08:24:05;;;;;;;21.27;15.77;;;;;;;13.89;100.00;98865.50;5034412;28;20683;-71
2022/10/11 08:26:32;;;;;;;22.60;15.37;;;;;;;13.78;100.00;98868.91;5034085;28;20214;-71
2022/10/11 08:29:01;;;;;;;22.00;15.57;;;;;;;13.98;100.00;98866.84;5034856;28;20206;-70
2022/10/11 08:31:27;;;;;;;22.63;16.13;;;;;;;14.03;100.00;98872.38;5034489;28;20241;-69
2022/10/11 08:33:53;;;;;;;27.90;16.37;;;;;;;13.71;100.00;98870.81;5034414;28;20231;-70
2022/10/11 08:36:38;;;;;;;22.10;15.93;;;;;;;13.71;100.00;98884.16;5034771;28;20233;-69
2022/10/11 08:39:06;;;;;;;30.57;17.43;;;;;;;13.80;100.00;98879.38;5034383;28;20210;-69
2022/10/11 08:41:36;;;;;;;22.80;17.57;;;;;;;13.72;100.00;98880.47;5034346;28;20229;-69
2022/10/11 08:44:02;;;;;;;23.43;16.43;;;;;;;13.79;100.00;98875.88;5034068;28;20217;-69
2022/10/11 08:46:32;;;;;;;24.57;16.73;;;;;;;13.80;100.00;98880.19;5034124;28;20669;-69
2022/10/11 08:49:00;;;;;;;23.07;17.17;;;;;;;13.78;100.00;98878.75;5016706;28;20206;-70
2022/10/11 08:51:38;;;;;;;25.63;15.70;;;;;;;13.99;100.00;98881.03;5033881;28;20225;-69
2022/10/11 08:54:12;;;;;;;25.93;16.80;;;;;;;13.96;100.00;98876.97;5034096;28;20217;-71
2022/10/11 08:56:42;;;;;;;23.50;16.97;;;;;;;14.01;100.00;98873.59;5017608;28;20196;-70
2022/10/11 08:59:11;;;;;;;18.50;14.97;;;;;;;14.03;100.00;98875.06;5034032;28;20217;-70
2022/10/11 09:01:45;;;;;;;20.33;15.27;;;;;;;14.05;100.00;98878.31;5033931;28;20233;-68
2022/10/11 09:04:17;;;;;;;28.47;16.70;;;;;;;13.95;100.00;98880.69;5033964;28;20181;-68
2022/10/11 09:06:52;;;;;;;24.67;16.80;;;;;;;13.99;100.00;98873.84;5034077;28;20206;-70
2022/10/11 09:09:51;;;;;;;20.63;15.87;;;;;;;13.72;100.00;98880.47;5033696;28;20206;-70
2022/10/11 09:12:51;;;;;;;24.47;16.53;;;;;;;13.79;100.00;98883.09;5033224;28;20214;-69
2022/10/11 09:15:28;;;;;;;25.07;15.87;;;;;;;13.79;100.00;98883.09;5034505;28;20210;-68
2022/10/11 09:17:54;;;;;;;23.20;17.33;;;;;;;13.86;100.00;98878.50;5033806;28;20194;-69
2022/10/11 09:20:52;;;;;;;23.43;16.73;;;;;;;13.79;100.00;98883.88;5033745;28;20226;-69
2022/10/11 09:23:37;;;;;;;25.97;16.67;;;;;;;13.72;100.00;98885.00;5033733;28;20202;-69
2022/10/11 09:26:28;;;;;;;24.43;16.77;;;;;;;13.85;100.00;98883.03;5033328;28;20209;-69
2022/10/11 09:29:24;;;;;;;24.17;16.47;;;;;;;13.75;100.00;98882.69;5032552;28;20210;-68
2022/10/11 09:31:54;;;;;;;29.63;16.23;;;;;;;13.69;100.00;98883.56;5033111;28;20210;-69
2022/10/11 09:34:25;;;;;;;26.77;17.43;;;;;;;13.93;100.00;98885.41;5033450;28;20250;-69
2022/10/11 09:37:03;;;;;;;26.20;16.73;;;;;;;13.71;100.00;98888.72;5033639;28;20186;-69
2022/10/11 09:39:39;;;;;;;23.50;19.00;;;;;;;13.95;100.00;98880.69;5033491;28;20300;-69
2022/10/11 09:42:08;;;;;;;27.63;18.23;;;;;;;14.02;100.00;98881.41;5032943;28;20645;-70
2022/10/11 09:44:35;;;;;;;24.80;16.20;;;;;;;13.93;100.00;98887.28;5033392;28;20198;-69
2022/10/11 09:47:02;;;;;;;25.90;16.53;;;;;;;14.14;100.00;98886.84;5032987;28;20560;-69
2022/10/11 09:49:35;;;;;;;25.37;16.03;;;;;;;13.94;100.00;98888.91;5033155;28;20216;-69
2022/10/11 09:52:03;;;;;;;19.13;15.27;;;;;;;14.23;100.00;98878.34;5033655;28;20200;-69
2022/10/11 09:54:42;;;;;;;20.07;15.73;;;;;;;14.28;100.00;98886.53;5033164;28;20233;-70
2022/10/11 09:57:35;;;;;;;28.70;16.00;;;;;;;14.32;100.00;98889.56;5033267;28;20205;-69
2022/10/11 10:00:20;;;;;;;22.17;15.10;;;;;;;14.45;100.00;98887.59;5032738;28;20222;-70
2022/10/11 10:02:58;;;;;;;25.17;15.50;;;;;;;14.12;100.00;98873.72;5033234;28;20194;-70
2022/10/11 10:05:30;;;;;;;22.83;15.13;;;;;;;14.40;100.00;98884.75;5033050;28;20214;-69
2022/10/11 10:08:06;;;;;;;22.60;14.83;;;;;;;14.40;100.00;98886.59;5033641;28;20186;-69
2022/10/11 10:10:42;;;;;;;22.63;15.20;;;;;;;14.24;100.00;98881.88;5032671;28;20264;-70
2022/10/11 10:13:23;;;;;;;24.27;15.40;;;;;;;14.38;100.00;98878.81;5032595;28;20210;-70
2022/10/11 10:15:53;;;;;;;20.20;15.30;;;;;;;14.20;100.00;98892.16;5032972;28;20239;-70
2022/10/11 10:18:24;;;;;;;21.67;14.73;;;;;;;14.40;100.00;98886.59;5032658;28;20673;-71
2022/10/11 10:20:53;;;;;;;17.03;14.00;;;;;;;14.34;100.00;98892.84;5032915;28;20229;-69
2022/10/11 10:23:27;;;;;;;23.60;14.53;;;;;;;14.41;100.00;98890.91;5032783;28;20209;-69
2022/10/11 10:26:25;;;;;;;20.83;14.60;;;;;;;14.39;100.00;98888.44;5032946;28;20187;-69
2022/10/11 10:28:59;;;;;;;23.30;14.23;;;;;;;14.40;100.00;98883.94;5032857;28;20194;-69
2022/10/11 10:31:40;;;;;;;23.93;15.00;;;;;;;14.26;100.00;98890.47;5032527;28;20242;-69
2022/10/11 10:34:16;;;;;;;19.80;14.27;;;;;;;14.48;100.00;98897.81;5032871;28;20210;-69
2022/10/11 10:36:47;;;;;;;20.37;14.07;;;;;;;14.48;100.00;98886.31;5032880;28;20216;-68
2022/10/11 10:39:33;;;;;;;20.93;14.13;;;;;;;14.50;100.00;98889.56;5034469;28;20534;-69
2022/10/11 10:42:04;;;;;;;15.93;13.17;;;;;;;14.50;100.00;98893.09;5019948;28;20190;-69
2022/10/11 10:44:31;;;;;;;22.73;14.40;;;;;;;14.42;100.00;98889.91;5036486;28;20194;-68
2022/10/11 10:47:14;;;;;;;17.93;13.37;;;;;;;14.54;100.00;98891.59;5036535;28;20209;-69
2022/10/11 10:49:48;;;;;;;18.53;13.37;;;;;;;14.74;100.00;98886.81;5036432;28;20198;-69
2022/10/11 10:52:41;;;;;;;17.07;13.43;;;;;;;14.68;100.00;98887.72;5036285;28;20190;-70
2022/10/11 10:55:21;;;;;;;18.53;14.07;;;;;;;14.65;100.00;98880.13;5036070;28;20217;-69
2022/10/11 10:58:25;;;;;;;21.00;14.07;;;;;;;14.68;100.00;98887.72;5036163;28;20200;-69
2022/10/11 11:00:58;;;;;;;20.63;13.07;;;;;;;14.62;100.00;98891.31;5036319;28;20229;-70
2022/10/11 11:03:44;;;;;;;20.10;13.30;;;;;;;14.77;100.00;98882.84;5018717;28;20220;-69
2022/10/11 11:07:00;;;;;;;21.93;13.83;;;;;;;14.75;100.00;98885.75;5018478;28;20190;-69
2022/10/11 11:09:32;;;;;;;18.07;13.00;;;;;;;14.71;100.00;98878.41;5012615;28;20661;-70
2022/10/11 11:12:35;;;;;;;17.23;12.40;;;;;;;14.67;100.00;98875.38;5036831;28;20209;-69
2022/10/11 11:15:20;;;;;;;16.77;12.80;;;;;;;14.45;100.00;98878.72;5035786;28;20205;-70
2022/10/11 11:18:15;;;;;;;14.83;12.53;;;;;;;14.91;100.00;98885.16;5018153;28;20191;-69
2022/10/11 11:20:48;;;;;;;17.37;11.57;;;;;;;14.93;100.00;98885.72;5035111;28;20731;-69
2022/10/11 11:23:33;;;;;;;17.00;12.77;;;;;;;14.93;100.00;98880.38;5036613;28;20190;-69
2022/10/11 11:26:08;;;;;;;18.40;12.00;;;;;;;14.72;100.00;98869.34;5035736;28;20209;-70
2022/10/11 11:29:03;;;;;;;18.83;11.93;;;;;;;14.66;100.00;98873.72;5035869;28;20189;-70
2022/10/11 11:31:55;;;;;;;19.40;12.83;;;;;;;14.89;100.00;98870.34;5035198;28;20724;-69